Time;durP1;ratioP1;P1;durP2;ratioP2;P2;SDS_P1;SDS_P2;PMS_P1;PMS_P2;Temp;Humidity;BMP_temperature;BMP_pressure;BME280_temperature;BME280_humidity;BME280_pressure;Samples;Min_cycle;Max_cycle;Signal;HPM_P1;HPM_P2
2022/01/30 00:01:55;;;;;;;1.20;0.70;;;10.30;66.60;;;;;;4969474;28;20202;-44
2022/01/30 00:04:21;;;;;;;0.80;0.80;;;10.50;66.40;;;;;;4969728;28;20443;-44
2022/01/30 00:06:46;;;;;;;0.80;0.80;;;10.50;65.60;;;;;;4971568;28;20285;-44
2022/01/30 00:09:21;;;;;;;0.67;0.67;;;10.60;65.50;;;;;;4972812;28;20191;-44
2022/01/30 00:11:52;;;;;;;0.97;0.97;;;10.70;65.30;;;;;;4971655;28;20194;-45
2022/01/30 00:14:19;;;;;;;2.20;0.70;;;10.60;65.40;;;;;;4971781;28;21009;-44
2022/01/30 00:16:45;;;;;;;0.80;0.80;;;10.80;65.40;;;;;;4975736;28;20495;-44
2022/01/30 00:19:23;;;;;;;0.70;0.70;;;10.90;64.90;;;;;;4977171;28;20546;-45
2022/01/30 00:22:00;;;;;;;0.67;0.60;;;11.00;64.40;;;;;;4978306;28;20918;-44
2022/01/30 00:24:41;;;;;;;0.83;0.83;;;10.70;64.70;;;;;;4970744;28;20458;-45
2022/01/30 00:27:12;;;;;;;1.00;0.90;;;10.60;65.50;;;;;;4970865;28;20471;-48
2022/01/30 00:29:37;;;;;;;0.90;0.90;;;10.60;65.80;;;;;;4970850;28;20809;-44
2022/01/30 00:32:03;;;;;;;0.80;0.80;;;10.60;65.30;;;;;;4972686;28;20525;-44
2022/01/30 00:34:29;;;;;;;2.00;1.00;;;10.60;65.60;;;;;;4970929;28;20724;-44
2022/01/30 00:36:54;;;;;;;1.30;1.00;;;10.60;65.50;;;;;;4973690;28;20493;-44
2022/01/30 00:39:20;;;;;;;0.90;0.80;;;10.40;65.90;;;;;;4975485;28;20278;-44
2022/01/30 00:41:45;;;;;;;0.77;0.77;;;10.50;66.40;;;;;;4973834;28;20273;-45
2022/01/30 00:44:11;;;;;;;0.63;0.63;;;10.40;66.20;;;;;;4973621;28;20199;-44
2022/01/30 00:46:38;;;;;;;1.00;1.00;;;10.40;66.60;;;;;;4971532;28;20202;-44
2022/01/30 00:49:03;;;;;;;0.83;0.83;;;10.60;66.80;;;;;;4971592;28;20195;-45
2022/01/30 00:51:29;;;;;;;0.90;0.80;;;10.60;66.20;;;;;;4986803;28;20454;-44
2022/01/30 00:53:54;;;;;;;0.77;0.70;;;10.90;65.80;;;;;;4973183;28;20675;-46
2022/01/30 00:56:20;;;;;;;1.33;0.83;;;11.00;65.20;;;;;;4969499;28;20219;-45
2022/01/30 00:58:46;;;;;;;0.83;0.83;;;10.90;64.90;;;;;;4969814;28;20222;-44
2022/01/30 01:01:11;;;;;;;0.90;0.90;;;10.70;65.40;;;;;;4975386;28;20202;-46
2022/01/30 01:03:37;;;;;;;0.97;0.60;;;10.80;66.10;;;;;;4970998;28;20609;-44
2022/01/30 01:06:05;;;;;;;0.97;0.97;;;10.80;66.30;;;;;;4969856;28;20230;-44
2022/01/30 01:08:46;;;;;;;1.00;0.90;;;11.00;66.10;;;;;;4971988;28;20195;-44
2022/01/30 01:11:39;;;;;;;1.10;0.90;;;10.90;65.90;;;;;;4976070;28;20938;-47
2022/01/30 01:24:45;;;;;;;0.77;0.70;;;11.70;64.30;;;;;;4973021;28;20454;-44
2022/01/30 01:27:10;;;;;;;1.20;1.10;;;11.50;65.30;;;;;;4974027;28;20430;-47
2022/01/30 01:29:37;;;;;;;2.43;1.13;;;11.60;65.60;;;;;;4970354;28;20227;-44
2022/01/30 01:32:04;;;;;;;2.80;1.07;;;11.50;66.30;;;;;;4971415;28;20191;-45
2022/01/30 01:34:36;;;;;;;1.23;1.13;;;11.70;65.90;;;;;;4972924;28;20481;-45
2022/01/30 01:37:03;;;;;;;0.83;0.80;;;11.80;65.80;;;;;;4975527;28;20500;-44
2022/01/30 01:39:29;;;;;;;1.10;0.90;;;11.70;66.00;;;;;;4972050;28;20485;-45
2022/01/30 01:41:55;;;;;;;1.10;0.97;;;11.90;65.50;;;;;;4974122;28;20477;-44
2022/01/30 01:45:00;;;;;;;1.23;1.00;;;12.00;65.10;;;;;;4973372;28;20454;-45
2022/01/30 01:47:20;;;;;;;0.90;0.90;;;12.00;65.10;;;;;;4970678;28;20215;-45
2022/01/30 01:49:47;;;;;;;0.90;0.90;;;11.90;65.00;;;;;;4970644;28;20446;-45
2022/01/30 01:52:24;;;;;;;1.53;0.90;;;11.80;65.60;;;;;;4971663;28;20450;-44
2022/01/30 01:54:58;;;;;;;1.90;1.00;;;11.90;65.30;;;;;;4971763;28;20454;-45
2022/01/30 01:57:25;;;;;;;2.70;1.77;;;12.00;65.20;;;;;;4969365;28;20804;-46
2022/01/30 01:59:52;;;;;;;1.13;1.00;;;12.00;65.10;;;;;;4971333;28;20447;-45
2022/01/30 02:02:18;;;;;;;1.93;1.33;;;12.00;65.40;;;;;;4972187;28;20439;-44
2022/01/30 02:04:44;;;;;;;1.20;1.10;;;12.10;65.20;;;;;;4969806;28;20443;-46
2022/01/30 02:09:39;;;;;;;1.30;1.10;;;12.00;64.90;;;;;;4970509;28;20442;-45
2022/01/30 02:12:05;;;;;;;1.20;1.10;;;12.00;65.40;;;;;;4970725;28;20450;-44
2022/01/30 02:14:46;;;;;;;1.43;1.33;;;12.00;65.70;;;;;;4971706;28;20497;-46
2022/01/30 02:25:41;;;;;;;0.93;0.90;;;12.00;65.50;;;;;;4966523;28;20563;-45
2022/01/30 02:28:11;;;;;;;1.57;1.00;;;11.80;65.90;;;;;;4967358;28;20447;-44
2022/01/30 02:30:44;;;;;;;2.13;1.30;;;11.80;66.10;;;;;;4971275;28;20793;-44
2022/01/30 02:33:09;;;;;;;1.23;1.13;;;11.90;65.80;;;;;;4965866;28;20458;-44
2022/01/30 02:35:35;;;;;;;1.30;1.20;;;11.90;65.80;;;;;;4971936;28;20490;-45
2022/01/30 02:38:01;;;;;;;1.20;1.03;;;12.00;65.80;;;;;;4970979;28;20218;-45
2022/01/30 02:40:30;;;;;;;1.10;1.10;;;12.00;65.40;;;;;;4976626;28;20254;-47
2022/01/30 02:42:56;;;;;;;0.80;0.80;;;11.90;65.30;;;;;;4966876;28;20549;-46
2022/01/30 02:45:25;;;;;;;2.30;1.20;;;11.50;66.40;;;;;;4971167;28;20490;-44
2022/01/30 02:47:59;;;;;;;0.80;0.80;;;11.40;67.30;;;;;;4971584;28;20194;-46
2022/01/30 02:53:31;;;;;;;1.57;1.07;;;11.30;67.60;;;;;;4968773;28;20962;-45
2022/01/30 02:55:57;;;;;;;1.07;1.00;;;11.10;68.00;;;;;;4970643;28;20502;-45
2022/01/30 02:58:23;;;;;;;1.30;1.20;;;11.20;68.20;;;;;;4969857;28;20449;-45
2022/01/30 03:00:48;;;;;;;1.60;1.50;;;11.20;68.00;;;;;;4970826;28;20438;-45
2022/01/30 03:03:14;;;;;;;1.50;1.40;;;11.00;67.50;;;;;;4971757;28;20222;-45
2022/01/30 03:05:39;;;;;;;1.60;1.50;;;11.00;67.80;;;;;;4970422;28;20203;-44
2022/01/30 03:08:05;;;;;;;3.17;1.60;;;11.00;67.90;;;;;;4972187;28;20202;-44
2022/01/30 03:10:31;;;;;;;2.43;1.50;;;11.00;66.90;;;;;;4972595;28;20711;-45
2022/01/30 03:12:56;;;;;;;1.73;1.43;;;11.00;67.00;;;;;;4968922;28;20198;-45
2022/01/30 03:15:22;;;;;;;3.77;1.60;;;10.90;66.90;;;;;;4970597;28;20659;-44
2022/01/30 03:17:47;;;;;;;1.30;1.20;;;10.70;67.40;;;;;;4968868;28;20195;-47
2022/01/30 03:20:13;;;;;;;4.90;2.17;;;10.90;67.70;;;;;;4971267;28;20203;-44
2022/01/30 03:22:40;;;;;;;1.60;1.50;;;11.20;66.70;;;;;;4971074;28;20199;-45
2022/01/30 03:25:06;;;;;;;1.63;1.50;;;11.30;66.00;;;;;;4967955;28;20202;-45
2022/01/30 03:27:32;;;;;;;1.50;1.40;;;11.30;65.70;;;;;;4965773;28;20950;-44
2022/01/30 03:30:06;;;;;;;2.47;1.27;;;11.40;65.30;;;;;;4969267;28;20195;-44
2022/01/30 03:32:32;;;;;;;3.93;1.20;;;11.40;65.40;;;;;;4969939;28;20217;-44
2022/01/30 03:34:58;;;;;;;1.40;1.10;;;11.50;65.00;;;;;;4967516;28;20931;-43
2022/01/30 03:37:24;;;;;;;2.20;1.10;;;11.40;65.10;;;;;;4968166;28;20270;-43
2022/01/30 03:39:49;;;;;;;2.00;1.60;;;11.30;65.40;;;;;;4968741;28;20845;-43
2022/01/30 03:42:15;;;;;;;1.27;1.17;;;11.20;65.50;;;;;;4971412;28;20199;-43
2022/01/30 03:44:41;;;;;;;1.43;1.20;;;11.40;65.20;;;;;;4969717;28;20261;-43
2022/01/30 03:47:06;;;;;;;4.10;1.40;;;11.30;65.30;;;;;;4968390;28;20223;-43
2022/01/30 03:49:33;;;;;;;1.77;1.30;;;11.30;65.30;;;;;;4971240;28;20533;-43
2022/01/30 03:51:58;;;;;;;1.87;1.40;;;11.50;65.30;;;;;;4971321;28;20363;-45
2022/01/30 03:54:24;;;;;;;3.60;1.60;;;11.70;64.40;;;;;;4971749;28;20938;-44
2022/01/30 03:56:49;;;;;;;1.37;1.27;;;11.70;64.10;;;;;;4969648;28;20702;-43
2022/01/30 03:59:15;;;;;;;1.30;1.20;;;11.50;64.20;;;;;;4967364;28;20635;-44
2022/01/30 04:01:41;;;;;;;2.17;2.00;;;11.50;64.60;;;;;;4967077;28;20202;-43
2022/01/30 04:04:06;;;;;;;1.57;1.47;;;11.60;64.10;;;;;;4971413;28;20241;-43
2022/01/30 04:06:32;;;;;;;1.50;1.37;;;11.60;64.10;;;;;;4970576;28;20196;-45
2022/01/30 04:08:58;;;;;;;3.77;2.00;;;11.50;64.00;;;;;;4965371;28;20188;-44
2022/01/30 04:11:24;;;;;;;3.93;1.10;;;11.60;64.00;;;;;;4966007;28;21223;-44
2022/01/30 04:13:49;;;;;;;2.27;1.33;;;11.50;63.50;;;;;;4970614;28;20195;-46
2022/01/30 04:16:15;;;;;;;2.27;1.47;;;11.60;63.60;;;;;;4970140;28;20341;-44
2022/01/30 04:18:41;;;;;;;2.27;1.57;;;11.70;63.60;;;;;;4967423;28;20270;-44
2022/01/30 04:21:06;;;;;;;3.10;1.20;;;11.70;63.30;;;;;;4970365;28;20191;-44
2022/01/30 04:23:32;;;;;;;2.63;1.60;;;11.80;63.50;;;;;;4971335;28;20238;-44
2022/01/30 04:25:58;;;;;;;2.10;1.90;;;11.80;63.00;;;;;;4967801;28;20242;-45
2022/01/30 04:28:24;;;;;;;5.13;1.40;;;12.00;62.50;;;;;;4964537;28;20195;-45
2022/01/30 04:30:50;;;;;;;2.10;1.90;;;11.70;62.80;;;;;;4969034;28;20231;-45
2022/01/30 04:33:15;;;;;;;2.43;2.23;;;11.50;63.10;;;;;;4971046;28;20450;-46
2022/01/30 04:35:41;;;;;;;3.27;1.90;;;11.40;64.20;;;;;;4968046;28;20857;-45
2022/01/30 04:38:17;;;;;;;2.20;1.63;;;11.30;65.00;;;;;;4970323;28;20204;-44
2022/01/30 04:41:19;;;;;;;2.97;1.90;;;11.40;64.10;;;;;;4964980;28;20484;-44
2022/01/30 04:52:23;;;;;;;2.70;1.87;;;11.50;63.30;;;;;;4965681;28;20457;-45
2022/01/30 05:08:05;;;;;;;5.67;1.83;;;11.30;63.70;;;;;;4970179;28;20289;-44
2022/01/30 05:10:30;;;;;;;4.73;2.83;;;11.40;63.50;;;;;;4969849;28;20447;-45
2022/01/30 05:12:58;;;;;;;4.07;2.13;;;11.40;63.40;;;;;;4965091;28;20458;-44
2022/01/30 05:15:27;;;;;;;3.20;1.90;;;11.50;62.80;;;;;;4968914;28;20238;-45
2022/01/30 05:17:53;;;;;;;5.80;2.37;;;11.30;62.80;;;;;;4971087;28;22377;-44
2022/01/30 05:20:18;;;;;;;6.50;2.33;;;11.10;63.30;;;;;;4972097;28;20449;-44
2022/01/30 05:22:44;;;;;;;3.50;2.00;;;11.10;63.50;;;;;;4973223;28;20225;-43
2022/01/30 05:25:10;;;;;;;5.43;4.13;;;11.20;63.30;;;;;;4969383;28;20915;-44
2022/01/30 05:27:36;;;;;;;6.37;2.70;;;11.00;62.60;;;;;;4971836;28;20820;-44
2022/01/30 05:30:03;;;;;;;6.93;3.10;;;11.10;62.70;;;;;;4973831;28;20435;-44
2022/01/30 05:32:29;;;;;;;4.00;2.20;;;10.80;62.40;;;;;;4972619;28;20557;-44
2022/01/30 05:34:56;;;;;;;13.30;2.97;;;10.80;62.80;;;;;;4971577;28;20529;-44
2022/01/30 05:37:21;;;;;;;4.30;2.20;;;11.00;62.40;;;;;;4971083;28;20226;-44
2022/01/30 05:39:48;;;;;;;5.00;2.57;;;11.00;62.00;;;;;;4973940;28;20465;-45
2022/01/30 05:42:14;;;;;;;5.33;2.30;;;10.90;61.50;;;;;;4971222;28;22361;-44
2022/01/30 05:44:52;;;;;;;3.87;2.33;;;11.00;61.80;;;;;;4971339;28;20442;-44
2022/01/30 05:47:29;;;;;;;5.77;2.50;;;10.90;62.00;;;;;;4971530;28;20457;-44
2022/01/30 05:49:55;;;;;;;6.00;2.57;;;10.80;62.50;;;;;;4971675;28;20446;-44
2022/01/30 05:52:24;;;;;;;3.77;2.53;;;10.80;62.60;;;;;;4968557;28;20957;-45
2022/01/30 05:54:50;;;;;;;4.13;2.83;;;10.70;63.00;;;;;;4968409;28;20226;-44
2022/01/30 05:57:16;;;;;;;3.90;2.53;;;10.80;63.00;;;;;;4967104;28;20490;-44
2022/01/30 05:59:41;;;;;;;7.90;3.07;;;10.90;62.50;;;;;;4971419;28;20454;-44
2022/01/30 06:02:07;;;;;;;3.53;2.23;;;10.90;62.30;;;;;;4972933;28;20199;-44
2022/01/30 06:04:33;;;;;;;6.27;2.90;;;10.80;62.00;;;;;;4972457;28;20202;-44
2022/01/30 06:07:00;;;;;;;5.13;2.80;;;10.80;62.10;;;;;;4970545;28;20282;-44
2022/01/30 06:09:25;;;;;;;7.33;3.00;;;10.90;61.90;;;;;;4971266;28;20548;-46
2022/01/30 06:11:51;;;;;;;4.93;3.43;;;10.80;62.30;;;;;;4972597;28;20485;-44
2022/01/30 06:14:18;;;;;;;3.47;2.50;;;10.80;62.50;;;;;;4973325;28;20564;-44
2022/01/30 06:16:44;;;;;;;7.20;2.73;;;10.90;62.40;;;;;;4967967;28;21035;-45
2022/01/30 06:19:10;;;;;;;6.67;2.70;;;10.90;62.50;;;;;;4969001;28;20448;-44
2022/01/30 06:21:35;;;;;;;4.70;3.07;;;10.90;62.50;;;;;;4969571;28;20443;-48
2022/01/30 06:24:01;;;;;;;6.90;3.20;;;11.00;62.60;;;;;;4973194;28;20188;-44
2022/01/30 06:26:28;;;;;;;7.83;3.00;;;10.90;63.00;;;;;;4970423;28;20751;-44
2022/01/30 06:28:54;;;;;;;6.93;3.13;;;11.10;62.80;;;;;;4968372;28;20465;-44
2022/01/30 06:31:19;;;;;;;8.93;3.00;;;11.10;62.60;;;;;;4971737;28;20450;-44
2022/01/30 06:33:45;;;;;;;7.43;3.63;;;11.10;62.60;;;;;;4978113;28;20195;-44
2022/01/30 06:36:10;;;;;;;11.90;3.10;;;10.90;62.90;;;;;;4971141;28;20223;-45
2022/01/30 06:38:36;;;;;;;6.40;3.23;;;10.80;63.60;;;;;;4970825;28;20209;-43
2022/01/30 06:41:02;;;;;;;13.10;10.60;;;10.80;63.50;;;;;;4968774;28;20595;-43
2022/01/30 06:43:28;;;;;;;4.57;3.10;;;10.80;63.30;;;;;;4970641;28;20195;-43
2022/01/30 06:45:55;;;;;;;5.23;2.40;;;10.80;62.80;;;;;;4970027;28;20596;-45
2022/01/30 06:48:21;;;;;;;6.67;2.67;;;10.80;62.30;;;;;;4962944;28;20289;-43
2022/01/30 06:50:47;;;;;;;7.63;2.70;;;10.70;62.00;;;;;;4970245;28;20931;-43
2022/01/30 06:53:13;;;;;;;5.70;2.53;;;10.60;61.50;;;;;;4968477;28;20454;-43
2022/01/30 06:55:42;;;;;;;7.80;4.60;;;10.50;61.10;;;;;;4969942;28;20293;-44
2022/01/30 06:58:08;;;;;;;4.77;2.90;;;10.60;61.20;;;;;;4969325;28;20672;-43
2022/01/30 07:00:35;;;;;;;9.30;3.00;;;10.60;61.20;;;;;;4967552;28;20806;-44
2022/01/30 07:03:00;;;;;;;8.30;2.70;;;10.40;60.90;;;;;;4975299;28;20496;-44
2022/01/30 07:05:26;;;;;;;11.20;5.97;;;10.50;60.90;;;;;;4974649;28;20969;-44
2022/01/30 07:07:52;;;;;;;5.43;3.23;;;10.60;60.40;;;;;;4972784;28;20195;-44
2022/01/30 07:10:19;;;;;;;6.30;2.90;;;10.70;60.00;;;;;;4973937;28;20198;-44
2022/01/30 07:12:45;;;;;;;9.03;2.80;;;10.70;59.80;;;;;;4971227;28;20191;-44
2022/01/30 07:15:10;;;;;;;10.60;3.50;;;10.80;59.30;;;;;;4973303;28;20548;-44
2022/01/30 07:17:36;;;;;;;4.07;2.37;;;10.90;59.10;;;;;;4973113;28;20211;-43
2022/01/30 07:20:03;;;;;;;9.90;3.43;;;10.90;58.80;;;;;;4978073;28;20203;-44
2022/01/30 07:22:28;;;;;;;5.03;2.80;;;10.80;58.30;;;;;;4972453;28;20338;-45
2022/01/30 07:24:55;;;;;;;5.87;2.90;;;10.50;58.40;;;;;;4977547;28;20504;-43
2022/01/30 07:27:20;;;;;;;10.30;3.20;;;10.50;58.80;;;;;;4974311;28;20619;-43
2022/01/30 07:29:46;;;;;;;6.77;2.20;;;10.70;58.40;;;;;;4973513;28;20430;-43
2022/01/30 07:32:11;;;;;;;8.33;2.60;;;10.50;58.40;;;;;;4972242;28;20222;-43
2022/01/30 07:34:37;;;;;;;4.57;2.27;;;10.50;58.30;;;;;;4973272;28;20194;-43
2022/01/30 07:37:04;;;;;;;11.13;2.37;;;10.60;58.40;;;;;;4975750;28;20226;-44
2022/01/30 07:39:31;;;;;;;9.40;3.40;;;10.60;58.20;;;;;;4978698;28;20198;-43
2022/01/30 07:41:57;;;;;;;6.33;2.40;;;10.60;58.10;;;;;;4974549;28;20482;-43
2022/01/30 07:44:23;;;;;;;4.87;2.70;;;10.80;57.90;;;;;;4970087;28;20442;-43
2022/01/30 07:46:49;;;;;;;8.07;2.60;;;10.80;57.80;;;;;;4971107;28;20438;-43
2022/01/30 07:49:16;;;;;;;9.83;2.57;;;10.60;58.00;;;;;;4972449;28;20956;-43
2022/01/30 07:51:42;;;;;;;8.90;3.37;;;10.70;58.20;;;;;;4975484;28;20195;-45
2022/01/30 07:54:07;;;;;;;8.93;3.20;;;10.60;58.10;;;;;;4967436;28;20803;-43
2022/01/30 07:56:33;;;;;;;9.10;2.80;;;10.60;58.30;;;;;;4970342;28;20227;-44
2022/01/30 07:58:59;;;;;;;5.87;2.70;;;10.60;58.30;;;;;;4973597;28;20194;-43
2022/01/30 08:01:24;;;;;;;5.60;2.40;;;10.70;58.40;;;;;;4975227;28;20267;-43
2022/01/30 08:03:50;;;;;;;5.90;2.93;;;10.90;58.30;;;;;;4971291;28;20205;-43
2022/01/30 08:06:15;;;;;;;6.97;2.97;;;10.80;58.30;;;;;;4974255;28;20202;-44
2022/01/30 08:08:41;;;;;;;8.30;2.67;;;10.80;58.50;;;;;;4971931;28;20206;-43
2022/01/30 08:11:10;;;;;;;8.10;2.60;;;10.90;58.60;;;;;;4972048;28;20286;-44
2022/01/30 08:13:35;;;;;;;7.33;3.17;;;11.00;58.40;;;;;;4973387;28;20664;-43
2022/01/30 08:16:01;;;;;;;10.60;2.80;;;10.90;58.10;;;;;;4977893;28;20573;-44
2022/01/30 08:18:27;;;;;;;5.60;2.93;;;11.00;58.30;;;;;;4974945;28;20203;-44
2022/01/30 08:20:54;;;;;;;8.43;3.70;;;11.10;58.20;;;;;;4976441;28;20187;-44
2022/01/30 08:23:22;;;;;;;7.53;4.03;;;11.00;58.00;;;;;;4974327;28;20795;-44
2022/01/30 08:25:48;;;;;;;5.80;2.73;;;11.10;58.00;;;;;;4973256;28;21014;-44
2022/01/30 08:28:14;;;;;;;7.23;2.90;;;11.00;57.80;;;;;;4971869;28;20529;-44
2022/01/30 08:30:40;;;;;;;7.17;2.63;;;11.00;58.10;;;;;;4972579;28;20195;-45
2022/01/30 08:33:05;;;;;;;7.83;2.60;;;10.90;58.20;;;;;;4972599;28;20191;-44
2022/01/30 08:35:31;;;;;;;7.37;2.90;;;10.90;58.20;;;;;;4974349;28;20226;-44
2022/01/30 08:37:58;;;;;;;6.60;3.17;;;10.90;58.10;;;;;;4971550;28;20194;-44
2022/01/30 08:40:24;;;;;;;10.13;3.20;;;10.80;58.10;;;;;;4979251;28;20561;-44
2022/01/30 08:42:50;;;;;;;6.40;2.50;;;10.70;57.90;;;;;;4973621;28;20437;-44
2022/01/30 08:45:18;;;;;;;8.23;2.93;;;10.80;58.20;;;;;;4973198;28;20474;-44
2022/01/30 08:47:46;;;;;;;7.27;2.70;;;10.50;57.60;;;;;;4971172;28;20462;-44
2022/01/30 08:50:13;;;;;;;9.53;2.50;;;10.40;58.40;;;;;;4982747;28;20450;-44
2022/01/30 08:52:39;;;;;;;11.60;3.70;;;10.40;57.70;;;;;;4975250;28;20846;-44
2022/01/30 08:55:07;;;;;;;6.60;2.57;;;10.60;57.30;;;;;;4976159;28;20438;-42
2022/01/30 08:57:33;;;;;;;8.93;2.60;;;10.60;56.90;;;;;;4975304;28;20458;-44
2022/01/30 08:59:59;;;;;;;5.20;2.10;;;10.40;56.30;;;;;;4975618;28;20470;-44
2022/01/30 09:02:26;;;;;;;5.60;2.87;;;10.40;56.40;;;;;;4977878;28;20860;-44
2022/01/30 09:04:52;;;;;;;4.90;2.50;;;10.70;56.50;;;;;;4980735;28;20212;-44
2022/01/30 09:07:19;;;;;;;8.70;3.30;;;10.70;54.80;;;;;;4979124;28;20447;-44
2022/01/30 09:09:45;;;;;;;8.80;2.30;;;11.00;54.60;;;;;;4986617;28;20430;-44
2022/01/30 09:12:11;;;;;;;11.63;3.47;;;10.80;54.20;;;;;;4980645;28;21264;-44
2022/01/30 09:14:39;;;;;;;12.80;2.90;;;11.00;54.20;;;;;;4976524;28;20443;-44
2022/01/30 09:17:13;;;;;;;9.97;2.40;;;10.90;53.10;;;;;;4977153;28;20680;-44
2022/01/30 09:19:44;;;;;;;5.83;2.40;;;10.80;52.70;;;;;;4971436;28;20445;-44
2022/01/30 09:22:11;;;;;;;12.23;2.80;;;10.90;52.80;;;;;;4974652;28;20457;-44
2022/01/30 09:24:37;;;;;;;9.30;2.87;;;11.00;52.00;;;;;;4976049;28;20462;-44
2022/01/30 09:27:04;;;;;;;9.37;2.63;;;10.80;52.20;;;;;;4975692;28;20438;-44
2022/01/30 09:29:31;;;;;;;8.90;3.33;;;10.80;52.90;;;;;;4975907;28;20430;-44
2022/01/30 09:31:58;;;;;;;10.53;3.23;;;10.70;52.60;;;;;;4975216;28;20447;-44
2022/01/30 09:34:24;;;;;;;7.97;2.87;;;10.60;53.10;;;;;;4973247;28;20439;-44
2022/01/30 09:36:49;;;;;;;7.10;2.90;;;10.90;53.30;;;;;;4974797;28;20490;-44
2022/01/30 09:39:15;;;;;;;6.50;3.03;;;11.10;52.60;;;;;;4975351;28;20225;-44
2022/01/30 09:41:43;;;;;;;6.40;2.87;;;11.10;51.80;;;;;;4982134;28;20246;-44
2022/01/30 09:44:10;;;;;;;8.40;2.60;;;11.30;52.20;;;;;;4984120;28;20202;-44
2022/01/30 09:46:39;;;;;;;10.53;2.23;;;11.30;52.20;;;;;;4977024;28;21139;-44
2022/01/30 09:49:06;;;;;;;5.73;2.70;;;11.50;52.00;;;;;;4985420;28;20437;-44
2022/01/30 09:51:34;;;;;;;7.97;2.30;;;11.70;51.50;;;;;;4986609;28;20492;-43
2022/01/30 09:54:00;;;;;;;6.53;2.07;;;11.80;51.30;;;;;;4973658;28;20443;-44
2022/01/30 09:56:26;;;;;;;9.17;2.87;;;11.70;50.90;;;;;;4973780;28;20986;-42
2022/01/30 09:58:52;;;;;;;11.30;3.07;;;11.40;51.60;;;;;;4981478;28;20438;-42
2022/01/30 10:01:17;;;;;;;8.17;2.53;;;11.40;51.30;;;;;;4975094;28;20315;-42
2022/01/30 10:03:46;;;;;;;9.27;3.53;;;11.30;51.70;;;;;;4969719;28;20214;-49
2022/01/30 10:06:18;;;;;;;7.47;3.17;;;11.40;51.90;;;;;;4971328;28;20219;-42
2022/01/30 10:08:46;;;;;;;7.23;2.43;;;11.40;52.10;;;;;;4965825;28;21021;-42
2022/01/30 10:11:30;;;;;;;7.87;2.80;;;11.20;52.90;;;;;;4977357;28;20823;-42
2022/01/30 10:14:21;;;;;;;7.20;2.87;;;11.40;52.80;;;;;;4974478;28;20443;-42
2022/01/30 10:16:49;;;;;;;8.50;2.50;;;11.50;53.20;;;;;;4986775;28;20501;-43
2022/01/30 10:19:24;;;;;;;7.63;2.63;;;11.50;53.40;;;;;;4983872;28;20434;-44
2022/01/30 10:22:07;;;;;;;9.67;2.70;;;11.20;53.00;;;;;;4973688;28;20480;-42
2022/01/30 10:24:40;;;;;;;11.30;3.07;;;10.90;53.90;;;;;;4980149;28;20446;-43
2022/01/30 10:27:35;;;;;;;9.20;2.80;;;11.10;54.30;;;;;;4976810;28;20470;-43
2022/01/30 10:30:06;;;;;;;6.50;2.50;;;11.20;54.00;;;;;;4967276;28;20482;-42
2022/01/30 10:32:33;;;;;;;7.73;2.93;;;11.30;53.40;;;;;;4970362;28;20435;-43
2022/01/30 10:35:03;;;;;;;9.10;3.17;;;11.40;53.40;;;;;;4985023;28;20479;-44
2022/01/30 10:37:29;;;;;;;5.37;2.50;;;11.50;53.80;;;;;;4973423;28;20502;-44
2022/01/30 10:40:16;;;;;;;6.10;3.30;;;11.60;53.10;;;;;;4975972;28;20449;-43
2022/01/30 10:42:47;;;;;;;6.53;3.20;;;11.60;52.90;;;;;;4978931;28;20521;-43
2022/01/30 10:45:18;;;;;;;8.37;3.20;;;11.70;52.90;;;;;;4975169;28;20956;-43
2022/01/30 10:47:45;;;;;;;8.10;2.80;;;11.60;52.60;;;;;;4974419;28;20450;-43
2022/01/30 10:50:13;;;;;;;6.80;2.80;;;11.50;52.60;;;;;;4972702;28;20449;-44
2022/01/30 10:53:02;;;;;;;12.23;3.47;;;11.10;52.30;;;;;;4974313;28;20803;-45
2022/01/30 10:55:39;;;;;;;8.30;3.07;;;11.00;52.00;;;;;;4974195;28;20571;-42
2022/01/30 10:58:09;;;;;;;7.63;2.60;;;11.00;52.10;;;;;;4970979;28;20954;-42
2022/01/30 11:00:46;;;;;;;10.33;2.50;;;10.70;50.80;;;;;;4973333;28;20434;-44
2022/01/30 11:03:44;;;;;;;6.40;1.73;;;11.00;51.00;;;;;;4973660;28;20512;-44
2022/01/30 11:06:13;;;;;;;6.27;2.57;;;11.10;48.60;;;;;;4967798;28;20465;-43
2022/01/30 11:08:42;;;;;;;5.30;1.90;;;11.30;48.20;;;;;;4970403;28;20442;-43
2022/01/30 11:11:33;;;;;;;14.80;4.77;;;11.60;46.90;;;;;;4972953;28;20462;-42
2022/01/30 11:19:18;;;;;;;5.73;2.60;;;11.80;46.70;;;;;;4968050;28;20533;-44
2022/01/30 11:21:48;;;;;;;10.37;4.20;;;11.90;46.50;;;;;;4967619;28;20455;-43
2022/01/30 11:24:15;;;;;;;8.07;2.50;;;12.10;46.40;;;;;;4966869;28;20802;-43
2022/01/30 11:26:43;;;;;;;6.70;2.30;;;11.80;45.90;;;;;;4968564;28;20807;-45
2022/01/30 11:29:10;;;;;;;8.00;2.40;;;11.70;46.70;;;;;;4969790;28;20854;-43
2022/01/30 11:31:36;;;;;;;9.17;2.67;;;11.70;46.40;;;;;;4973507;28;20526;-43
2022/01/30 11:34:03;;;;;;;9.20;2.90;;;11.80;46.60;;;;;;4969594;28;20449;-43
2022/01/30 11:36:30;;;;;;;10.00;2.87;;;11.90;47.20;;;;;;4980494;28;20506;-43
2022/01/30 11:38:56;;;;;;;8.27;2.57;;;12.00;47.20;;;;;;4971688;28;20461;-43
2022/01/30 11:41:22;;;;;;;8.50;2.20;;;12.20;46.40;;;;;;4972336;28;20469;-44
2022/01/30 11:44:15;;;;;;;8.30;2.10;;;12.40;46.50;;;;;;4969312;28;20298;-43
2022/01/30 11:46:41;;;;;;;8.87;2.40;;;12.70;46.50;;;;;;4971526;28;20199;-44
2022/01/30 11:49:13;;;;;;;13.60;2.93;;;12.60;45.80;;;;;;4976882;28;20437;-44
2022/01/30 11:51:53;;;;;;;8.73;2.60;;;12.60;46.20;;;;;;4977374;28;20290;-43
2022/01/30 11:54:42;;;;;;;8.90;2.90;;;12.70;46.30;;;;;;4964604;28;20442;-44
2022/01/30 11:57:29;;;;;;;4.83;2.07;;;12.60;46.30;;;;;;4962329;28;20977;-43
2022/01/30 11:59:56;;;;;;;12.47;2.67;;;12.60;46.60;;;;;;4976420;28;20943;-44
2022/01/30 12:02:27;;;;;;;8.40;2.97;;;12.80;46.60;;;;;;4970332;28;20979;-44
2022/01/30 12:05:33;;;;;;;9.27;2.80;;;12.60;45.80;;;;;;4971970;28;20590;-44
2022/01/30 12:07:58;;;;;;;10.33;2.73;;;12.70;46.30;;;;;;4971058;28;20435;-44
2022/01/30 12:10:25;;;;;;;9.13;3.07;;;12.70;46.50;;;;;;4972094;28;20576;-43
2022/01/30 12:12:51;;;;;;;11.17;3.20;;;12.60;46.30;;;;;;4972773;28;20199;-43
2022/01/30 12:15:46;;;;;;;7.23;2.97;;;12.60;47.10;;;;;;4971255;28;20431;-44
2022/01/30 12:18:34;;;;;;;8.03;2.93;;;12.60;47.30;;;;;;4976010;28;20952;-44
2022/01/30 12:21:14;;;;;;;12.80;3.70;;;12.40;47.50;;;;;;4971853;28;20970;-44
2022/01/30 12:23:42;;;;;;;11.97;4.47;;;12.40;47.60;;;;;;4964781;28;20438;-44
2022/01/30 12:26:14;;;;;;;11.67;3.50;;;12.40;47.60;;;;;;4973819;28;20447;-44
2022/01/30 12:28:54;;;;;;;8.20;2.87;;;12.30;47.50;;;;;;4970522;28;20438;-44
2022/01/30 12:31:36;;;;;;;7.77;3.40;;;12.40;48.20;;;;;;4966259;28;20482;-43
2022/01/30 12:34:06;;;;;;;14.80;4.10;;;12.40;47.80;;;;;;4970553;28;20947;-43
2022/01/30 12:36:36;;;;;;;8.30;3.87;;;12.60;47.70;;;;;;4970499;28;20498;-44
2022/01/30 12:39:11;;;;;;;7.47;3.20;;;12.70;47.10;;;;;;4969361;28;20450;-43
2022/01/30 12:41:39;;;;;;;12.60;3.00;;;12.50;46.40;;;;;;4970526;28;20482;-44
2022/01/30 12:44:13;;;;;;;9.83;2.60;;;12.60;46.80;;;;;;4970908;28;20439;-44
2022/01/30 12:46:48;;;;;;;9.13;3.60;;;12.60;46.60;;;;;;4969456;28;20443;-44
2022/01/30 12:49:39;;;;;;;6.97;4.10;;;12.80;47.00;;;;;;4969225;28;20529;-44
2022/01/30 12:52:06;;;;;;;8.80;2.80;;;13.00;46.90;;;;;;4962174;28;20446;-43
2022/01/30 12:54:37;;;;;;;17.27;4.83;;;13.10;46.10;;;;;;4970704;28;20808;-43
2022/01/30 12:57:04;;;;;;;11.23;4.10;;;13.20;45.20;;;;;;4969743;28;20497;-43
2022/01/30 12:59:30;;;;;;;9.77;3.33;;;13.10;45.70;;;;;;4973151;28;20490;-43
2022/01/30 13:02:04;;;;;;;6.63;3.37;;;13.00;45.20;;;;;;4971970;28;20458;-43
2022/01/30 13:04:29;;;;;;;14.07;2.67;;;13.10;45.60;;;;;;4968945;28;20878;-44
2022/01/30 13:06:55;;;;;;;6.90;2.40;;;13.10;45.00;;;;;;4972354;28;20441;-44
2022/01/30 13:09:26;;;;;;;8.20;2.40;;;13.00;44.40;;;;;;4970919;28;20196;-43
2022/01/30 13:12:15;;;;;;;6.30;3.40;;;12.80;43.60;;;;;;4968922;28;20422;-44
2022/01/30 13:14:43;;;;;;;9.50;2.80;;;12.60;43.30;;;;;;4974138;28;20847;-43
2022/01/30 13:17:10;;;;;;;6.70;2.73;;;12.90;43.80;;;;;;4969814;28;20885;-44
2022/01/30 13:19:44;;;;;;;6.87;2.43;;;13.00;43.40;;;;;;4969274;28;20439;-45
2022/01/30 13:22:22;;;;;;;8.17;2.23;;;13.00;43.00;;;;;;4970983;28;20915;-43
2022/01/30 13:24:54;;;;;;;6.17;2.70;;;13.10;43.20;;;;;;4971024;28;20430;-43
2022/01/30 13:27:20;;;;;;;6.53;2.57;;;13.30;43.10;;;;;;4969883;28;20434;-43
2022/01/30 13:29:45;;;;;;;6.40;2.33;;;13.30;42.40;;;;;;4971210;28;20419;-43
2022/01/30 13:32:12;;;;;;;8.60;2.50;;;13.40;42.20;;;;;;4970662;28;20612;-43
2022/01/30 13:34:42;;;;;;;8.37;2.50;;;13.40;41.20;;;;;;4970960;28;20199;-43
2022/01/30 13:37:16;;;;;;;4.73;1.90;;;13.20;41.20;;;;;;4970921;28;20496;-43
2022/01/30 13:43:13;;;;;;;6.33;2.20;;;13.00;41.20;;;;;;4970843;28;20553;-44
2022/01/30 13:48:22;;;;;;;9.20;2.30;;;13.10;41.20;;;;;;4913722;29;20989;-43
2022/01/30 13:51:03;;;;;;;9.00;2.40;;;13.20;41.90;;;;;;4964058;28;20864;-43
2022/01/30 13:53:29;;;;;;;7.93;2.63;;;13.20;41.60;;;;;;4971565;28;20439;-44